createdAt,value
2017-01-16T00:00:15.713Z,1011.4
2017-01-16T00:01:16.197Z,1011.43
2017-01-16T00:02:15.690Z,1011.4
2017-01-16T00:03:15.783Z,1011.38
2017-01-16T00:04:16.006Z,1011.38
2017-01-16T00:05:15.877Z,1011.39
2017-01-16T00:06:15.827Z,1011.39
2017-01-16T00:07:16.076Z,1011.45
2017-01-16T00:08:15.906Z,1011.45
2017-01-16T00:09:16.061Z,1011.47
2017-01-16T00:10:15.792Z,1011.45
2017-01-16T00:11:16.215Z,1011.44
2017-01-16T00:12:16.098Z,1011.37
2017-01-16T00:13:15.852Z,1011.35
2017-01-16T00:14:16.032Z,1011.37
2017-01-16T00:15:16.200Z,1011.34
2017-01-16T00:16:16.201Z,1011.33
2017-01-16T00:17:16.420Z,1011.34
2017-01-16T00:18:15.961Z,1011.35
2017-01-16T00:19:16.021Z,1011.39
2017-01-16T00:20:15.975Z,1011.42
2017-01-16T00:21:16.022Z,1011.42
2017-01-16T00:22:16.098Z,1011.4
2017-01-16T00:23:16.007Z,1011.41
2017-01-16T00:24:16.192Z,1011.42
2017-01-16T00:25:16.173Z,1011.42
2017-01-16T00:26:16.040Z,1011.37
2017-01-16T00:27:16.115Z,1011.35
2017-01-16T00:28:16.047Z,1011.39
2017-01-16T00:29:16.022Z,1011.43
2017-01-16T00:30:16.114Z,1011.42
2017-01-16T00:31:16.094Z,1011.41
2017-01-16T00:32:16.165Z,1011.41
2017-01-16T00:33:16.348Z,1011.45
2017-01-16T00:34:16.380Z,1011.45
2017-01-16T00:35:16.323Z,1011.46
2017-01-16T00:36:16.360Z,1011.48
2017-01-16T00:37:16.553Z,1011.52
2017-01-16T00:38:16.201Z,1011.53
2017-01-16T00:39:16.324Z,1011.51
2017-01-16T00:40:16.272Z,1011.49
2017-01-16T00:41:16.395Z,1011.54
2017-01-16T00:42:16.203Z,1011.53
2017-01-16T00:43:16.507Z,1011.57
2017-01-16T00:44:16.277Z,1011.52
2017-01-16T00:45:16.477Z,1011.51
2017-01-16T00:46:16.316Z,1011.5
2017-01-16T00:47:16.724Z,1011.45
2017-01-16T00:48:16.647Z,1011.49
2017-01-16T00:49:16.313Z,1011.46
2017-01-16T00:50:16.419Z,1011.49
2017-01-16T00:51:16.333Z,1011.5
2017-01-16T00:52:16.587Z,1011.45
2017-01-16T00:53:16.674Z,1011.51
2017-01-16T00:54:16.417Z,1011.51
2017-01-16T00:55:16.358Z,1011.55
2017-01-16T00:56:16.417Z,1011.5
2017-01-16T00:57:16.390Z,1011.55
2017-01-16T00:58:16.724Z,1011.52
2017-01-16T00:59:16.544Z,1011.5
2017-01-16T01:00:16.603Z,1011.46
2017-01-16T01:01:16.571Z,1011.46
2017-01-16T01:02:16.559Z,1011.44
2017-01-16T01:03:16.559Z,1011.41
2017-01-16T01:04:16.615Z,1011.41
2017-01-16T01:05:16.484Z,1011.44
2017-01-16T01:06:16.659Z,1011.47
2017-01-16T01:07:16.487Z,1011.47
2017-01-16T01:08:16.504Z,1011.49
2017-01-16T01:09:16.808Z,1011.53
2017-01-16T01:10:16.582Z,1011.52
2017-01-16T01:11:16.610Z,1011.54
2017-01-16T01:12:16.776Z,1011.55
2017-01-16T01:13:16.938Z,1011.56
2017-01-16T01:14:16.637Z,1011.61
2017-01-16T01:15:16.829Z,1011.64
2017-01-16T01:16:16.495Z,1011.66
2017-01-16T01:17:16.584Z,1011.65
2017-01-16T01:18:16.731Z,1011.65
2017-01-16T01:19:16.904Z,1011.67
2017-01-16T01:20:16.662Z,1011.67
2017-01-16T01:21:16.608Z,1011.69
2017-01-16T01:22:17.114Z,1011.67
2017-01-16T01:23:16.530Z,1011.67
2017-01-16T01:24:16.720Z,1011.63
2017-01-16T01:25:16.785Z,1011.67
2017-01-16T01:26:16.804Z,1011.7
2017-01-16T01:27:16.850Z,1011.68
2017-01-16T01:28:16.937Z,1011.64
2017-01-16T01:29:16.839Z,1011.68
2017-01-16T01:30:16.966Z,1011.7
2017-01-16T01:31:16.830Z,1011.69
2017-01-16T01:32:16.860Z,1011.72
2017-01-16T01:33:17.049Z,1011.72
2017-01-16T01:34:17.159Z,1011.73
2017-01-16T01:35:17.245Z,1011.73
2017-01-16T01:36:17.216Z,1011.7
2017-01-16T01:37:17.227Z,1011.75
2017-01-16T01:38:16.920Z,1011.73
2017-01-16T01:39:16.946Z,1011.74
2017-01-16T01:40:16.883Z,1011.78
2017-01-16T01:41:16.909Z,1011.82
2017-01-16T01:42:16.964Z,1011.79
2017-01-16T01:43:16.870Z,1011.78
2017-01-16T01:44:17.093Z,1011.81
2017-01-16T01:45:17.126Z,1011.81
2017-01-16T01:46:16.974Z,1011.84
2017-01-16T01:47:16.971Z,1011.83
2017-01-16T01:48:17.220Z,1011.84
2017-01-16T01:49:17.094Z,1011.88
2017-01-16T01:50:17.009Z,1011.86
2017-01-16T01:51:17.009Z,1011.88
2017-01-16T01:52:17.214Z,1011.9
2017-01-16T01:53:16.983Z,1011.9
2017-01-16T01:54:17.009Z,1011.89
2017-01-16T01:55:17.135Z,1011.9
2017-01-16T01:56:16.988Z,1011.9
2017-01-16T01:57:17.029Z,1011.88
2017-01-16T01:58:17.077Z,1011.91
2017-01-16T01:59:17.184Z,1011.88
2017-01-16T02:00:17.509Z,1011.89
2017-01-16T02:01:17.067Z,1011.87
2017-01-16T02:02:17.298Z,1011.85
2017-01-16T02:03:17.210Z,1011.88
2017-01-16T02:04:17.249Z,1011.85
2017-01-16T02:05:17.099Z,1011.91
2017-01-16T02:06:17.238Z,1011.91
2017-01-16T02:07:17.329Z,1011.96
2017-01-16T02:08:17.371Z,1011.98
2017-01-16T02:09:17.063Z,1011.94
2017-01-16T02:10:17.550Z,1011.92
2017-01-16T02:11:17.348Z,1011.92
2017-01-16T02:12:17.417Z,1011.94
2017-01-16T02:13:17.369Z,1011.93
2017-01-16T02:14:17.283Z,1011.95
2017-01-16T02:15:17.290Z,1011.94
2017-01-16T02:16:17.276Z,1011.94
2017-01-16T02:17:17.308Z,1011.99
2017-01-16T02:18:17.308Z,1011.91
2017-01-16T02:19:17.465Z,1011.93
2017-01-16T02:20:17.402Z,1011.91
2017-01-16T02:21:17.402Z,1011.94
2017-01-16T02:22:17.634Z,1011.9
2017-01-16T02:23:17.846Z,1011.88
2017-01-16T02:24:17.306Z,1011.93
2017-01-16T02:25:17.613Z,1011.91
2017-01-16T02:26:17.475Z,1011.89
2017-01-16T02:27:17.498Z,1011.94
2017-01-16T02:28:17.520Z,1011.93
2017-01-16T02:29:17.658Z,1011.89
2017-01-16T02:30:17.837Z,1011.89
2017-01-16T02:31:17.454Z,1011.95
2017-01-16T02:32:18.016Z,1011.95
2017-01-16T02:33:17.582Z,1011.99
2017-01-16T02:34:17.470Z,1011.98
2017-01-16T02:35:17.460Z,1012
2017-01-16T02:36:17.695Z,1011.99
2017-01-16T02:37:17.680Z,1011.94
2017-01-16T02:38:17.967Z,1012
2017-01-16T02:39:17.793Z,1011.99
2017-01-16T02:40:17.866Z,1012.02
2017-01-16T02:41:17.452Z,1011.99
2017-01-16T02:42:17.701Z,1012.01
2017-01-16T02:43:17.797Z,1012.04
2017-01-16T02:44:17.647Z,1012.05
2017-01-16T02:45:17.595Z,1012.04
2017-01-16T02:46:17.579Z,1012.09
2017-01-16T02:47:18.344Z,1012.07
2017-01-16T02:48:17.805Z,1012.1
2017-01-16T02:49:17.533Z,1012.11
2017-01-16T02:50:17.589Z,1012.08
2017-01-16T02:51:17.901Z,1012.1
2017-01-16T02:52:18.052Z,1012.11
2017-01-16T02:53:17.727Z,1012.08
2017-01-16T02:54:17.747Z,1012.09
2017-01-16T02:55:17.866Z,1012.08
2017-01-16T02:56:17.619Z,1012.07
2017-01-16T02:57:17.725Z,1012.06
2017-01-16T02:58:17.671Z,1012.08
2017-01-16T02:59:17.714Z,1012.05
2017-01-16T03:00:17.633Z,1012.03
2017-01-16T03:01:17.837Z,1012.09
2017-01-16T03:02:17.889Z,1012.13
2017-01-16T03:03:17.678Z,1012.1
2017-01-16T03:04:17.982Z,1012.13
2017-01-16T03:05:17.867Z,1012.13
2017-01-16T03:06:18.023Z,1012.16
2017-01-16T03:07:17.974Z,1012.13
2017-01-16T03:08:17.845Z,1012.13
2017-01-16T03:09:17.778Z,1012.17
2017-01-16T03:10:17.888Z,1012.15
2017-01-16T03:11:17.845Z,1012.15
2017-01-16T03:12:18.170Z,1012.17
2017-01-16T03:13:17.930Z,1012.13
2017-01-16T03:14:17.932Z,1012.15
2017-01-16T03:15:17.942Z,1012.17
2017-01-16T03:16:17.853Z,1012.19
2017-01-16T03:17:17.922Z,1012.16
2017-01-16T03:18:17.913Z,1012.19
2017-01-16T03:19:18.148Z,1012.21
2017-01-16T03:20:18.231Z,1012.22
2017-01-16T03:21:18.404Z,1012.17
2017-01-16T03:22:18.412Z,1012.19
2017-01-16T03:23:18.343Z,1012.18
2017-01-16T03:24:18.018Z,1012.19
2017-01-16T03:25:18.044Z,1012.18
2017-01-16T03:26:18.119Z,1012.18
2017-01-16T03:27:18.210Z,1012.19
2017-01-16T03:28:18.156Z,1012.17
2017-01-16T03:29:18.622Z,1012.13
2017-01-16T03:30:18.078Z,1012.14
2017-01-16T03:31:18.401Z,1012.17
2017-01-16T03:32:18.158Z,1012.17
2017-01-16T03:33:18.321Z,1012.17
2017-01-16T03:34:18.293Z,1012.16
2017-01-16T03:35:18.257Z,1012.19
2017-01-16T03:36:18.240Z,1012.15
2017-01-16T03:37:18.316Z,1012.16
2017-01-16T03:38:18.311Z,1012.17
2017-01-16T03:39:18.072Z,1012.15
2017-01-16T03:40:18.250Z,1012.15
2017-01-16T03:41:18.087Z,1012.17
2017-01-16T03:42:18.227Z,1012.08
2017-01-16T03:43:18.301Z,1012.08
2017-01-16T03:44:18.387Z,1012.1
2017-01-16T03:45:18.102Z,1012.07
2017-01-16T03:46:18.121Z,1012.03
2017-01-16T03:47:18.209Z,1012.03
2017-01-16T03:48:18.311Z,1012.07
2017-01-16T03:49:18.447Z,1012.06
2017-01-16T03:50:18.387Z,1012.05
2017-01-16T03:51:18.691Z,1012.09
2017-01-16T03:52:18.898Z,1012.08
2017-01-16T03:53:18.257Z,1012.1
2017-01-16T03:54:18.285Z,1012.14
2017-01-16T03:55:18.308Z,1012.14
2017-01-16T03:56:18.285Z,1012.11
2017-01-16T03:57:18.406Z,1012.14
2017-01-16T03:58:18.383Z,1012.1
2017-01-16T03:59:18.458Z,1012.14
2017-01-16T04:00:18.462Z,1012.16
2017-01-16T04:01:18.399Z,1012.17
2017-01-16T04:02:18.489Z,1012.17
2017-01-16T04:03:18.655Z,1012.19
2017-01-16T04:04:18.532Z,1012.19
2017-01-16T04:05:18.478Z,1012.18
2017-01-16T04:06:18.432Z,1012.18
2017-01-16T04:07:18.639Z,1012.18
2017-01-16T04:08:18.391Z,1012.2
2017-01-16T04:09:18.462Z,1012.2
2017-01-16T04:10:19.382Z,1012.2
2017-01-16T04:11:18.718Z,1012.24
2017-01-16T04:12:18.687Z,1012.24
2017-01-16T04:13:18.474Z,1012.23
2017-01-16T04:14:18.621Z,1012.25
2017-01-16T04:15:18.797Z,1012.26
2017-01-16T04:16:18.610Z,1012.27
2017-01-16T04:17:18.494Z,1012.26
2017-01-16T04:18:18.676Z,1012.31
2017-01-16T04:19:18.499Z,1012.29
2017-01-16T04:20:18.703Z,1012.35
2017-01-16T04:21:18.534Z,1012.3
2017-01-16T04:22:19.059Z,1012.32
2017-01-16T04:23:18.704Z,1012.33
2017-01-16T04:24:18.668Z,1012.31
2017-01-16T04:25:18.610Z,1012.28
2017-01-16T04:26:18.773Z,1012.26
2017-01-16T04:27:19.573Z,1012.25
2017-01-16T04:28:18.778Z,1012.3
2017-01-16T04:29:18.866Z,1012.26
2017-01-16T04:30:18.831Z,1012.31
2017-01-16T04:31:18.743Z,1012.32
2017-01-16T04:32:18.903Z,1012.31
2017-01-16T04:33:18.730Z,1012.32
2017-01-16T04:34:18.660Z,1012.3
2017-01-16T04:35:18.778Z,1012.33
2017-01-16T04:36:18.816Z,1012.32
2017-01-16T04:37:18.841Z,1012.34
2017-01-16T04:38:18.898Z,1012.36
2017-01-16T04:39:18.815Z,1012.33
2017-01-16T04:40:18.708Z,1012.33
2017-01-16T04:41:18.851Z,1012.38
2017-01-16T04:42:18.748Z,1012.36
2017-01-16T04:43:18.758Z,1012.34
2017-01-16T04:44:19.017Z,1012.33
2017-01-16T04:45:18.798Z,1012.34
2017-01-16T04:46:18.765Z,1012.33
2017-01-16T04:47:19.178Z,1012.35
2017-01-16T04:48:19.508Z,1012.4
2017-01-16T04:49:19.096Z,1012.4
2017-01-16T04:50:18.912Z,1012.39
2017-01-16T04:51:19.607Z,1012.43
2017-01-16T04:52:18.912Z,1012.41
2017-01-16T04:53:19.622Z,1012.48
2017-01-16T04:54:19.072Z,1012.45
2017-01-16T04:55:19.160Z,1012.48
2017-01-16T04:56:19.161Z,1012.49
2017-01-16T04:57:19.163Z,1012.48
2017-01-16T04:58:19.211Z,1012.51
2017-01-16T04:59:19.177Z,1012.51
2017-01-16T05:00:19.321Z,1012.53
2017-01-16T05:01:19.195Z,1012.56
2017-01-16T05:02:19.379Z,1012.51
2017-01-16T05:03:19.376Z,1012.53
2017-01-16T05:04:19.403Z,1012.52
2017-01-16T05:05:19.390Z,1012.57
2017-01-16T05:06:19.138Z,1012.57
2017-01-16T05:07:19.872Z,1012.59
2017-01-16T05:08:19.418Z,1012.6
2017-01-16T05:09:19.431Z,1012.6
2017-01-16T05:10:19.518Z,1012.65
2017-01-16T05:11:19.521Z,1012.65
2017-01-16T05:12:19.395Z,1012.66
2017-01-16T05:13:19.386Z,1012.64
2017-01-16T05:14:19.276Z,1012.62
2017-01-16T05:15:19.282Z,1012.66
2017-01-16T05:16:19.228Z,1012.7
2017-01-16T05:17:19.456Z,1012.73
2017-01-16T05:18:19.463Z,1012.71
2017-01-16T05:19:19.415Z,1012.78
2017-01-16T05:20:19.613Z,1012.78
2017-01-16T05:21:19.485Z,1012.8
2017-01-16T05:22:19.398Z,1012.78
2017-01-16T05:23:19.499Z,1012.84
2017-01-16T05:24:19.451Z,1012.86
2017-01-16T05:25:19.384Z,1012.87
2017-01-16T05:26:19.707Z,1012.91
2017-01-16T05:27:19.568Z,1012.92
2017-01-16T05:28:19.527Z,1012.95
2017-01-16T05:29:19.801Z,1012.91
2017-01-16T05:30:19.700Z,1012.92
2017-01-16T05:31:19.494Z,1012.91
2017-01-16T05:32:19.818Z,1012.94
2017-01-16T05:33:19.411Z,1012.9
2017-01-16T05:34:19.564Z,1012.87
2017-01-16T05:35:19.826Z,1012.87
2017-01-16T05:36:19.519Z,1012.9
2017-01-16T05:37:19.376Z,1012.94
2017-01-16T05:38:19.782Z,1012.99
2017-01-16T05:39:19.504Z,1012.97
2017-01-16T05:40:19.892Z,1013.01
2017-01-16T05:41:19.503Z,1013.02
2017-01-16T05:42:19.543Z,1013.03
2017-01-16T05:43:19.855Z,1013.02
2017-01-16T05:44:19.669Z,1013.04
2017-01-16T05:45:19.528Z,1013.02
2017-01-16T05:46:19.542Z,1013.12
2017-01-16T05:47:20.050Z,1013.09
2017-01-16T05:48:19.731Z,1013.09
2017-01-16T05:49:19.599Z,1013.07
2017-01-16T05:50:20.232Z,1013.11
2017-01-16T05:51:19.898Z,1013.13
2017-01-16T05:52:19.690Z,1013.17
2017-01-16T05:53:19.577Z,1013.17
2017-01-16T05:54:19.832Z,1013.15
2017-01-16T05:55:19.705Z,1013.2
2017-01-16T05:56:19.686Z,1013.21
2017-01-16T05:57:19.695Z,1013.23
2017-01-16T05:58:19.805Z,1013.25
2017-01-16T05:59:19.769Z,1013.24
2017-01-16T06:00:20.024Z,1013.26
2017-01-16T06:01:19.882Z,1013.26
2017-01-16T06:02:19.696Z,1013.28
2017-01-16T06:03:19.769Z,1013.33
2017-01-16T06:04:19.675Z,1013.3
2017-01-16T06:05:19.781Z,1013.34
2017-01-16T06:06:20.003Z,1013.3
2017-01-16T06:07:19.778Z,1013.34
2017-01-16T06:08:19.881Z,1013.34
2017-01-16T06:09:19.827Z,1013.32
2017-01-16T06:10:19.947Z,1013.34
2017-01-16T06:11:20.295Z,1013.37
2017-01-16T06:12:19.777Z,1013.38
2017-01-16T06:13:19.967Z,1013.37
2017-01-16T06:14:19.835Z,1013.37
2017-01-16T06:15:20.223Z,1013.42
2017-01-16T06:16:19.915Z,1013.41
2017-01-16T06:17:20.314Z,1013.4
2017-01-16T06:18:20.039Z,1013.44
2017-01-16T06:19:20.098Z,1013.48
2017-01-16T06:20:19.872Z,1013.48
2017-01-16T06:21:19.904Z,1013.52
2017-01-16T06:22:20.079Z,1013.52
2017-01-16T06:23:19.915Z,1013.53
2017-01-16T06:24:20.019Z,1013.53
2017-01-16T06:25:20.075Z,1013.52
2017-01-16T06:26:20.088Z,1013.53
2017-01-16T06:27:20.025Z,1013.53
2017-01-16T06:28:20.307Z,1013.49
2017-01-16T06:29:20.061Z,1013.5
2017-01-16T06:30:20.197Z,1013.47
2017-01-16T06:31:20.154Z,1013.53
2017-01-16T06:32:20.102Z,1013.54
2017-01-16T06:33:20.151Z,1013.52
2017-01-16T06:34:20.225Z,1013.6
2017-01-16T06:35:20.349Z,1013.65
2017-01-16T06:36:20.468Z,1013.67
2017-01-16T06:37:20.047Z,1013.64
2017-01-16T06:38:20.246Z,1013.69
2017-01-16T06:39:20.110Z,1013.73
2017-01-16T06:40:20.248Z,1013.69
2017-01-16T06:41:20.159Z,1013.69
2017-01-16T06:42:20.776Z,1013.66
2017-01-16T06:43:20.272Z,1013.68
2017-01-16T06:44:20.313Z,1013.69
2017-01-16T06:45:20.251Z,1013.67
2017-01-16T06:46:20.078Z,1013.69
2017-01-16T06:47:20.217Z,1013.74
2017-01-16T06:48:20.590Z,1013.72
2017-01-16T06:49:20.279Z,1013.74
2017-01-16T06:50:20.121Z,1013.76
2017-01-16T06:51:20.350Z,1013.77
2017-01-16T06:52:20.187Z,1013.74
2017-01-16T06:53:20.260Z,1013.77
2017-01-16T06:54:20.438Z,1013.79
2017-01-16T06:55:20.324Z,1013.82
2017-01-16T06:56:20.384Z,1013.8
2017-01-16T06:57:20.566Z,1013.85
2017-01-16T06:58:20.284Z,1013.89
2017-01-16T06:59:20.494Z,1013.86
2017-01-16T07:00:20.213Z,1013.85
2017-01-16T07:01:20.335Z,1013.88
2017-01-16T07:02:20.334Z,1013.89
2017-01-16T07:03:20.439Z,1013.92
2017-01-16T07:04:20.420Z,1013.94
2017-01-16T07:05:20.435Z,1013.93
2017-01-16T07:06:20.578Z,1013.94
2017-01-16T07:07:20.783Z,1013.96
2017-01-16T07:08:20.858Z,1013.97
2017-01-16T07:09:20.985Z,1013.98
2017-01-16T07:10:21.009Z,1013.97
2017-01-16T07:11:20.647Z,1013.95
2017-01-16T07:12:20.416Z,1014
2017-01-16T07:13:20.753Z,1014.01
2017-01-16T07:14:20.642Z,1014.02
2017-01-16T07:15:20.812Z,1014.08
2017-01-16T07:16:20.945Z,1014.05
2017-01-16T07:17:20.539Z,1014.04
2017-01-16T07:18:20.588Z,1014.07
2017-01-16T07:19:20.781Z,1014.08
2017-01-16T07:20:20.503Z,1014.1
2017-01-16T07:21:20.764Z,1014.1
2017-01-16T07:22:20.596Z,1014.08
2017-01-16T07:23:20.834Z,1014.14
2017-01-16T07:24:20.743Z,1014.13
2017-01-16T07:25:20.693Z,1014.16
2017-01-16T07:26:20.593Z,1014.16
2017-01-16T07:27:20.541Z,1014.18
2017-01-16T07:28:20.746Z,1014.17
2017-01-16T07:29:20.784Z,1014.22
2017-01-16T07:30:20.721Z,1014.21
2017-01-16T07:31:20.805Z,1014.24
2017-01-16T07:32:21.011Z,1014.29
2017-01-16T07:33:20.927Z,1014.27
2017-01-16T07:34:20.672Z,1014.27
2017-01-16T07:35:20.662Z,1014.26
2017-01-16T07:36:20.890Z,1014.27
2017-01-16T07:37:20.688Z,1014.26
2017-01-16T07:38:20.799Z,1014.34
2017-01-16T07:39:20.650Z,1014.33
2017-01-16T07:40:20.977Z,1014.35
2017-01-16T07:41:20.720Z,1014.35
2017-01-16T07:42:20.904Z,1014.38
2017-01-16T07:43:21.273Z,1014.37
2017-01-16T07:44:20.765Z,1014.41
2017-01-16T07:45:20.953Z,1014.41
2017-01-16T07:46:21.009Z,1014.44
2017-01-16T07:47:20.754Z,1014.43
2017-01-16T07:48:20.962Z,1014.51
2017-01-16T07:49:20.835Z,1014.47
2017-01-16T07:50:20.846Z,1014.53
2017-01-16T07:51:21.045Z,1014.54
2017-01-16T07:52:21.075Z,1014.5
2017-01-16T07:53:20.926Z,1014.58
2017-01-16T07:54:21.323Z,1014.57
2017-01-16T07:55:20.990Z,1014.62
2017-01-16T07:56:21.007Z,1014.59
2017-01-16T07:57:20.933Z,1014.64
2017-01-16T07:58:20.984Z,1014.62
2017-01-16T07:59:21.210Z,1014.68
2017-01-16T08:00:20.966Z,1014.65
2017-01-16T08:01:20.927Z,1014.65
2017-01-16T08:02:21.076Z,1014.68
2017-01-16T08:03:21.100Z,1014.67
2017-01-16T08:04:21.161Z,1014.69
2017-01-16T08:05:20.977Z,1014.74
2017-01-16T08:06:21.286Z,1014.74
2017-01-16T08:07:21.437Z,1014.71
2017-01-16T08:08:21.131Z,1014.75
2017-01-16T08:09:21.118Z,1014.75
2017-01-16T08:10:21.302Z,1014.77
2017-01-16T08:11:21.313Z,1014.77
2017-01-16T08:12:21.356Z,1014.82
2017-01-16T08:13:21.243Z,1014.8
2017-01-16T08:14:21.302Z,1014.85
2017-01-16T08:15:21.175Z,1014.81
2017-01-16T08:16:21.561Z,1014.84
2017-01-16T08:17:21.207Z,1014.82
2017-01-16T08:18:21.140Z,1014.84
2017-01-16T08:19:21.260Z,1014.8
2017-01-16T08:20:21.169Z,1014.84
2017-01-16T08:21:21.212Z,1014.84
2017-01-16T08:22:21.687Z,1014.9
2017-01-16T08:23:21.311Z,1014.89
2017-01-16T08:24:21.415Z,1014.88
2017-01-16T08:25:21.147Z,1014.89
2017-01-16T08:26:21.418Z,1014.93
2017-01-16T08:27:21.203Z,1014.96
2017-01-16T08:28:21.393Z,1014.97
2017-01-16T08:29:21.640Z,1014.99
2017-01-16T08:30:21.478Z,1014.95
2017-01-16T08:31:21.800Z,1015
2017-01-16T08:32:21.256Z,1015.01
2017-01-16T08:33:21.469Z,1015
2017-01-16T08:34:21.310Z,1015.01
2017-01-16T08:35:21.469Z,1015.05
2017-01-16T08:36:21.328Z,1015.06
2017-01-16T08:37:21.699Z,1015.06
2017-01-16T08:38:21.578Z,1015.07
2017-01-16T08:39:21.547Z,1015.08
2017-01-16T08:40:21.658Z,1015.08
2017-01-16T08:41:21.428Z,1015.08
2017-01-16T08:42:21.573Z,1015.08
2017-01-16T08:43:21.600Z,1015.11
2017-01-16T08:44:21.375Z,1015.1
2017-01-16T08:45:21.722Z,1015.14
2017-01-16T08:46:21.516Z,1015.13
2017-01-16T08:47:21.514Z,1015.09
2017-01-16T08:48:21.887Z,1015.13
2017-01-16T08:49:21.701Z,1015.11
2017-01-16T08:50:21.894Z,1015.09
2017-01-16T08:51:21.512Z,1015.13
2017-01-16T08:52:21.571Z,1015.08
2017-01-16T08:53:22.188Z,1015.11
2017-01-16T08:54:21.660Z,1015.09
2017-01-16T08:55:21.528Z,1015.11
2017-01-16T08:56:21.619Z,1015.1
2017-01-16T08:57:21.817Z,1015.12
2017-01-16T08:58:21.736Z,1015.15
2017-01-16T08:59:21.651Z,1015.19
2017-01-16T09:00:21.740Z,1015.18
2017-01-16T09:01:21.599Z,1015.16
2017-01-16T09:02:21.709Z,1015.17
2017-01-16T09:03:21.752Z,1015.21
2017-01-16T09:04:21.945Z,1015.27
2017-01-16T09:05:21.734Z,1015.24
2017-01-16T09:06:21.700Z,1015.24
2017-01-16T09:07:21.852Z,1015.29
2017-01-16T09:08:21.884Z,1015.31
2017-01-16T09:09:21.719Z,1015.33
2017-01-16T09:10:22.158Z,1015.3
2017-01-16T09:11:21.676Z,1015.37
2017-01-16T09:12:22.076Z,1015.34
2017-01-16T09:13:22.172Z,1015.38
2017-01-16T09:14:21.757Z,1015.38
2017-01-16T09:15:22.109Z,1015.36
2017-01-16T09:16:21.805Z,1015.38
2017-01-16T09:17:21.814Z,1015.37
2017-01-16T09:18:21.974Z,1015.39
2017-01-16T09:19:21.797Z,1015.42
2017-01-16T09:20:21.805Z,1015.42
2017-01-16T09:21:21.775Z,1015.4
2017-01-16T09:22:22.028Z,1015.35
2017-01-16T09:23:22.059Z,1015.41
2017-01-16T09:24:22.107Z,1015.38
2017-01-16T09:25:21.781Z,1015.38
2017-01-16T09:26:21.858Z,1015.4
2017-01-16T09:27:22.358Z,1015.4
2017-01-16T09:28:22.173Z,1015.4
2017-01-16T09:29:22.046Z,1015.4
2017-01-16T09:30:22.111Z,1015.42
2017-01-16T09:31:21.995Z,1015.4
2017-01-16T09:32:21.967Z,1015.42
2017-01-16T09:33:22.127Z,1015.53
2017-01-16T09:34:22.231Z,1015.52
2017-01-16T09:35:22.420Z,1015.49
2017-01-16T09:36:22.221Z,1015.5
2017-01-16T09:37:22.109Z,1015.53
2017-01-16T09:38:22.248Z,1015.49
2017-01-16T09:39:22.131Z,1015.52
2017-01-16T09:40:22.150Z,1015.51
2017-01-16T09:41:22.091Z,1015.52
2017-01-16T09:42:22.092Z,1015.47
2017-01-16T09:43:22.233Z,1015.47
2017-01-16T09:44:22.262Z,1015.48
2017-01-16T09:45:22.328Z,1015.5
2017-01-16T09:46:22.329Z,1015.49
2017-01-16T09:47:22.356Z,1015.5
2017-01-16T09:48:22.141Z,1015.5
2017-01-16T09:49:22.267Z,1015.49
2017-01-16T09:50:22.409Z,1015.5
2017-01-16T09:51:22.318Z,1015.53
2017-01-16T09:52:22.316Z,1015.49
2017-01-16T09:53:22.295Z,1015.49
2017-01-16T09:54:22.289Z,1015.51
2017-01-16T09:55:22.261Z,1015.51
2017-01-16T09:56:22.569Z,1015.51
2017-01-16T09:57:22.394Z,1015.55
2017-01-16T09:58:22.163Z,1015.47
2017-01-16T09:59:22.378Z,1015.51
2017-01-16T10:00:22.669Z,1015.5
2017-01-16T10:01:22.324Z,1015.48
2017-01-16T10:02:22.288Z,1015.53
2017-01-16T10:03:22.404Z,1015.51
2017-01-16T10:04:22.325Z,1015.52
2017-01-16T10:05:22.231Z,1015.58
2017-01-16T10:06:22.435Z,1015.59
2017-01-16T10:07:22.850Z,1015.59
2017-01-16T10:08:22.548Z,1015.56
2017-01-16T10:09:22.312Z,1015.6
2017-01-16T10:10:22.668Z,1015.6
2017-01-16T10:11:22.611Z,1015.64
2017-01-16T10:12:22.696Z,1015.64
2017-01-16T10:13:22.386Z,1015.58
2017-01-16T10:14:22.638Z,1015.6
2017-01-16T10:15:22.330Z,1015.6
2017-01-16T10:16:22.459Z,1015.6
2017-01-16T10:17:22.802Z,1015.59
2017-01-16T10:18:22.895Z,1015.6
2017-01-16T10:19:22.669Z,1015.59
2017-01-16T10:20:22.569Z,1015.54
2017-01-16T10:21:22.878Z,1015.56
2017-01-16T10:22:22.825Z,1015.56
2017-01-16T10:23:22.569Z,1015.58
2017-01-16T10:24:22.555Z,1015.59
2017-01-16T10:25:22.715Z,1015.58
2017-01-16T10:26:22.680Z,1015.54
2017-01-16T10:27:22.573Z,1015.53
2017-01-16T10:28:22.697Z,1015.52
2017-01-16T10:29:22.979Z,1015.54
2017-01-16T10:30:22.676Z,1015.54
2017-01-16T10:31:22.642Z,1015.5
2017-01-16T10:32:22.634Z,1015.52
2017-01-16T10:33:22.877Z,1015.51
2017-01-16T10:34:22.963Z,1015.49
2017-01-16T10:35:22.668Z,1015.52
2017-01-16T10:36:22.723Z,1015.5
2017-01-16T10:37:22.925Z,1015.48
2017-01-16T10:38:22.939Z,1015.51
2017-01-16T10:39:22.922Z,1015.47
2017-01-16T10:40:22.881Z,1015.51
2017-01-16T10:41:22.800Z,1015.46
2017-01-16T10:42:22.959Z,1015.48
2017-01-16T10:43:23.108Z,1015.5
2017-01-16T10:44:22.836Z,1015.52
2017-01-16T10:45:22.913Z,1015.51
2017-01-16T10:46:22.826Z,1015.53
2017-01-16T10:47:23.019Z,1015.53
2017-01-16T10:48:22.867Z,1015.53
2017-01-16T10:49:22.892Z,1015.54
2017-01-16T10:50:22.811Z,1015.51
2017-01-16T10:51:22.897Z,1015.51
2017-01-16T10:52:23.240Z,1015.52
2017-01-16T10:53:22.914Z,1015.52
2017-01-16T10:54:22.834Z,1015.5
2017-01-16T10:55:22.956Z,1015.53
2017-01-16T10:56:22.936Z,1015.55
2017-01-16T10:57:22.908Z,1015.57
2017-01-16T10:58:23.115Z,1015.57
2017-01-16T10:59:23.065Z,1015.58
2017-01-16T11:00:23.132Z,1015.55
2017-01-16T11:01:23.188Z,1015.54
2017-01-16T11:02:23.252Z,1015.53
2017-01-16T11:03:23.141Z,1015.58
2017-01-16T11:04:23.322Z,1015.52
2017-01-16T11:05:23.272Z,1015.54
2017-01-16T11:06:23.047Z,1015.53
2017-01-16T11:07:23.483Z,1015.55
2017-01-16T11:08:23.264Z,1015.52
2017-01-16T11:09:23.400Z,1015.59
2017-01-16T11:10:23.178Z,1015.55
2017-01-16T11:11:23.175Z,1015.52
2017-01-16T11:12:23.403Z,1015.52
2017-01-16T11:13:23.787Z,1015.54
2017-01-16T11:14:23.262Z,1015.55
2017-01-16T11:15:23.109Z,1015.55
2017-01-16T11:16:23.222Z,1015.55
2017-01-16T11:17:23.529Z,1015.53
2017-01-16T11:18:23.196Z,1015.54
2017-01-16T11:19:23.789Z,1015.61
2017-01-16T11:20:23.221Z,1015.59
2017-01-16T11:21:24.318Z,1015.57
2017-01-16T11:22:23.310Z,1015.57
2017-01-16T11:23:23.233Z,1015.56
2017-01-16T11:24:23.726Z,1015.55
2017-01-16T11:25:23.220Z,1015.56
2017-01-16T11:26:23.423Z,1015.6
2017-01-16T11:27:23.826Z,1015.59
2017-01-16T11:28:23.541Z,1015.56
2017-01-16T11:29:23.824Z,1015.58
2017-01-16T11:30:23.513Z,1015.57
2017-01-16T11:31:23.521Z,1015.59
2017-01-16T11:32:23.466Z,1015.54
2017-01-16T11:33:23.432Z,1015.55
2017-01-16T11:34:23.490Z,1015.62
2017-01-16T11:35:23.558Z,1015.58
2017-01-16T11:36:23.569Z,1015.56
2017-01-16T11:37:23.514Z,1015.56
2017-01-16T11:38:23.501Z,1015.59
2017-01-16T11:39:23.448Z,1015.56
2017-01-16T11:40:23.452Z,1015.6
2017-01-16T11:41:23.944Z,1015.61
2017-01-16T11:42:23.697Z,1015.59
2017-01-16T11:43:23.925Z,1015.64
2017-01-16T11:44:23.477Z,1015.63
2017-01-16T11:45:23.861Z,1015.69
2017-01-16T11:46:23.896Z,1015.73
2017-01-16T11:47:23.872Z,1015.7
2017-01-16T11:48:23.820Z,1015.68
2017-01-16T11:49:23.921Z,1015.69
2017-01-16T11:50:23.817Z,1015.77
2017-01-16T11:51:23.584Z,1015.71
2017-01-16T11:52:24.095Z,1015.7
2017-01-16T11:53:24.018Z,1015.72
2017-01-16T11:54:23.932Z,1015.78
2017-01-16T11:55:24.174Z,1015.85
2017-01-16T11:56:24.857Z,1015.86
2017-01-16T11:57:24.302Z,1015.84
2017-01-16T11:58:24.135Z,1015.91
2017-01-16T11:59:23.886Z,1015.9
2017-01-16T12:00:24.137Z,1015.92
2017-01-16T12:01:24.049Z,1015.95
2017-01-16T12:02:24.006Z,1016.04
2017-01-16T12:03:24.066Z,1016.07
2017-01-16T12:04:24.041Z,1016.02
2017-01-16T12:05:24.145Z,1015.93
2017-01-16T12:06:23.854Z,1015.89
2017-01-16T12:07:24.060Z,1015.91
2017-01-16T12:08:24.021Z,1015.94